Time;durP1;ratioP1;P1;durP2;ratioP2;P2;SDS_P1;SDS_P2;PMS_P1;PMS_P2;Temp;Humidity;BMP_temperature;BMP_pressure;BME280_temperature;BME280_humidity;BME280_pressure;Samples;Min_cycle;Max_cycle;Signal;HPM_P1;HPM_P2
2022/05/28 00:01:03;;;;;;;3.15;1.70;;;14.90;99.90;;;;;;4997819;28;20085;-76
2022/05/28 00:03:32;;;;;;;2.55;1.25;;;14.90;99.90;;;;;;4994665;28;20045;-76
2022/05/28 00:06:00;;;;;;;2.28;1.60;;;15.00;99.90;;;;;;4997959;28;20463;-76
2022/05/28 00:08:29;;;;;;;3.20;1.40;;;15.00;99.90;;;;;;4992850;28;20033;-75
2022/05/28 00:10:58;;;;;;;2.00;1.60;;;15.00;99.90;;;;;;4996631;28;20022;-77
2022/05/28 00:13:26;;;;;;;4.38;1.90;;;15.10;99.90;;;;;;4995446;28;20540;-76
2022/05/28 00:16:00;;;;;;;2.17;1.60;;;15.10;99.90;;;;;;5000811;28;20101;-75
2022/05/28 00:18:28;;;;;;;1.70;1.60;;;15.00;99.90;;;;;;4996454;28;20049;-76
2022/05/28 00:20:57;;;;;;;4.45;1.80;;;15.10;99.90;;;;;;5000927;28;20474;-77
2022/05/28 00:23:23;;;;;;;2.33;1.75;;;15.00;99.90;;;;;;5001442;28;20108;-76
2022/05/28 00:26:03;;;;;;;3.00;1.83;;;15.00;99.90;;;;;;5000396;28;20048;-77
2022/05/28 00:28:35;;;;;;;2.25;1.65;;;15.00;99.90;;;;;;4995908;28;20030;-76
2022/05/28 00:31:02;;;;;;;3.75;2.28;;;15.00;99.90;;;;;;5001897;28;20029;-76
2022/05/28 00:33:30;;;;;;;2.20;1.80;;;15.00;99.90;;;;;;4997645;28;20022;-76
2022/05/28 00:36:09;;;;;;;2.83;1.90;;;15.00;99.90;;;;;;5001411;28;20018;-75
2022/05/28 00:38:36;;;;;;;3.45;1.77;;;15.00;99.90;;;;;;4996273;28;20164;-76
2022/05/28 00:41:06;;;;;;;1.90;1.70;;;15.00;99.90;;;;;;5001785;28;20812;-76
2022/05/28 00:43:37;;;;;;;2.10;1.83;;;15.00;99.90;;;;;;4996036;28;20451;-76
2022/05/28 00:46:23;;;;;;;2.03;1.75;;;15.10;99.90;;;;;;4999849;28;20030;-76
2022/05/28 00:48:55;;;;;;;2.55;1.55;;;15.10;99.90;;;;;;4996448;28;20030;-76
2022/05/28 00:51:29;;;;;;;2.05;1.63;;;15.10;99.90;;;;;;5000081;28;20046;-76
2022/05/28 00:54:00;;;;;;;1.65;1.55;;;15.10;99.90;;;;;;5000189;28;20117;-76
2022/05/28 00:56:28;;;;;;;1.92;1.73;;;15.10;99.90;;;;;;4996748;28;20606;-76
2022/05/28 00:59:00;;;;;;;1.85;1.70;;;15.00;99.90;;;;;;4999226;28;20061;-76
2022/05/28 01:01:27;;;;;;;1.60;1.50;;;15.00;99.90;;;;;;4996328;28;20030;-76
2022/05/28 01:04:35;;;;;;;2.13;1.85;;;15.00;99.90;;;;;;4999064;28;20340;-76
2022/05/28 01:07:14;;;;;;;4.07;1.60;;;14.90;99.90;;;;;;4999877;28;20022;-76
2022/05/28 01:10:21;;;;;;;2.53;2.20;;;14.90;99.90;;;;;;4995905;28;20418;-76
2022/05/28 01:13:10;;;;;;;2.80;1.90;;;14.90;99.90;;;;;;4992481;28;20020;-76
2022/05/28 01:15:48;;;;;;;2.22;2.00;;;15.00;99.90;;;;;;4994599;28;20064;-76
2022/05/28 01:18:26;;;;;;;2.28;1.98;;;15.00;99.90;;;;;;4997929;28;20101;-76
2022/05/28 01:21:05;;;;;;;3.42;1.70;;;15.00;99.90;;;;;;4997259;28;20382;-76
2022/05/28 01:23:58;;;;;;;2.58;1.88;;;15.00;99.90;;;;;;4996362;28;20018;-76
2022/05/28 01:26:31;;;;;;;3.03;1.88;;;15.00;99.90;;;;;;4997771;28;20072;-76
2022/05/28 01:29:12;;;;;;;2.15;1.92;;;15.00;99.90;;;;;;4999495;28;20025;-76
2022/05/28 01:31:38;;;;;;;5.25;2.15;;;15.00;99.90;;;;;;4996831;28;20030;-76
2022/05/28 01:34:07;;;;;;;2.40;1.92;;;15.00;99.90;;;;;;4998856;28;20382;-77
2022/05/28 01:36:53;;;;;;;2.03;1.83;;;15.00;99.90;;;;;;4994208;28;20028;-76
2022/05/28 01:39:21;;;;;;;2.67;1.85;;;15.00;99.90;;;;;;5001150;28;20024;-76
2022/05/28 01:41:58;;;;;;;2.55;2.13;;;15.00;99.90;;;;;;4997775;28;20026;-76
2022/05/28 01:44:24;;;;;;;2.78;2.17;;;15.00;99.90;;;;;;5001779;28;20021;-75
2022/05/28 01:46:52;;;;;;;4.13;1.73;;;15.00;99.90;;;;;;4999468;28;20014;-76
2022/05/28 01:49:20;;;;;;;2.13;1.90;;;14.90;99.90;;;;;;5001276;28;20018;-76
2022/05/28 01:52:06;;;;;;;3.35;2.38;;;15.00;99.90;;;;;;4996583;28;20538;-75
2022/05/28 01:54:43;;;;;;;3.95;2.15;;;15.00;99.90;;;;;;4995765;28;20033;-76
2022/05/28 01:57:12;;;;;;;3.17;2.00;;;15.00;99.90;;;;;;5000039;28;20054;-76
2022/05/28 01:59:41;;;;;;;1.98;1.80;;;15.00;99.90;;;;;;4996808;28;20096;-76
2022/05/28 02:02:11;;;;;;;3.13;2.13;;;15.00;99.90;;;;;;5000231;28;20554;-76
2022/05/28 02:04:41;;;;;;;2.50;2.30;;;15.00;99.90;;;;;;4996146;28;20030;-76
2022/05/28 02:07:16;;;;;;;3.65;1.92;;;15.00;99.90;;;;;;5000914;28;20079;-76
2022/05/28 02:09:53;;;;;;;3.80;2.00;;;15.00;99.90;;;;;;4996089;28;20026;-76
2022/05/28 02:12:23;;;;;;;;;;;15.00;99.90;;;;;;4999583;28;20058;-76
2022/05/28 02:15:25;;;;;;;3.30;2.17;;;15.00;99.90;;;;;;4995983;28;20343;-76
2022/05/28 02:17:59;;;;;;;3.78;2.35;;;14.90;99.90;;;;;;4995626;28;20033;-76
2022/05/28 02:20:42;;;;;;;3.10;2.33;;;15.00;99.90;;;;;;4997407;28;20378;-76
2022/05/28 02:23:27;;;;;;;4.05;2.50;;;15.00;99.90;;;;;;5000251;28;20467;-75
2022/05/28 02:26:08;;;;;;;2.45;2.17;;;15.00;99.90;;;;;;4998657;28;20080;-76
2022/05/28 02:28:35;;;;;;;2.70;2.15;;;15.00;99.90;;;;;;4994634;28;20486;-76
2022/05/28 02:31:19;;;;;;;3.33;2.30;;;15.00;99.90;;;;;;5000006;28;20029;-75
2022/05/28 02:33:45;;;;;;;3.13;2.13;;;15.00;99.90;;;;;;4992190;28;21044;-76
2022/05/28 02:36:16;;;;;;;3.90;2.47;;;15.10;99.90;;;;;;4999961;28;20030;-76
2022/05/28 02:38:46;;;;;;;2.47;2.28;;;15.00;99.90;;;;;;4993969;28;20379;-76
2022/05/28 02:41:12;;;;;;;3.33;2.70;;;15.00;99.90;;;;;;4999726;28;20054;-76
2022/05/28 02:43:41;;;;;;;2.72;2.42;;;15.00;99.90;;;;;;4995916;28;20121;-76
2022/05/28 02:46:09;;;;;;;3.00;2.45;;;15.00;99.90;;;;;;4999170;28;20034;-76
2022/05/28 02:48:52;;;;;;;6.13;2.95;;;14.90;99.90;;;;;;4994256;28;20029;-76
2022/05/28 02:51:23;;;;;;;4.32;2.80;;;14.90;99.90;;;;;;4996172;28;20478;-75
2022/05/28 02:53:52;;;;;;;5.22;2.92;;;15.00;99.90;;;;;;4990941;28;20014;-75
2022/05/28 02:56:28;;;;;;;4.07;2.60;;;15.00;99.90;;;;;;4999789;28;20018;-77
2022/05/28 02:58:53;;;;;;;4.32;2.88;;;15.00;99.90;;;;;;4996938;28;20037;-76
2022/05/28 03:01:24;;;;;;;3.70;2.80;;;15.00;99.90;;;;;;4997761;28;20026;-76
2022/05/28 03:03:52;;;;;;;3.03;2.67;;;15.00;99.90;;;;;;4994108;28;20073;-76
2022/05/28 03:06:19;;;;;;;3.90;3.00;;;15.00;99.90;;;;;;4995100;28;20689;-76
2022/05/28 03:08:46;;;;;;;2.45;2.25;;;15.00;99.90;;;;;;4994455;28;20125;-76
2022/05/28 03:11:22;;;;;;;2.90;2.47;;;15.00;99.90;;;;;;4995439;28;20018;-75
2022/05/28 03:13:48;;;;;;;3.33;2.72;;;15.00;99.90;;;;;;4991398;28;20029;-75
2022/05/28 03:16:16;;;;;;;5.75;3.03;;;15.00;99.90;;;;;;4997781;28;20014;-75
2022/05/28 03:18:43;;;;;;;3.22;2.92;;;15.00;99.90;;;;;;4990132;28;20355;-76
2022/05/28 03:21:10;;;;;;;3.85;2.88;;;15.10;99.90;;;;;;4999054;28;20022;-76
2022/05/28 03:23:36;;;;;;;4.38;3.15;;;15.00;99.90;;;;;;4994580;28;20034;-76
2022/05/28 03:26:23;;;;;;;6.43;3.65;;;15.00;99.90;;;;;;4998430;28;20029;-76
2022/05/28 03:28:59;;;;;;;;;;;15.10;99.90;;;;;;4992383;28;20026;-76
2022/05/28 03:31:27;;;;;;;5.63;3.15;;;15.00;99.90;;;;;;4996381;28;19920;-76
2022/05/28 03:33:54;;;;;;;4.85;3.90;;;14.90;99.90;;;;;;4996334;28;20026;-76
2022/05/28 03:36:22;;;;;;;4.32;3.45;;;15.00;99.90;;;;;;4999074;28;20459;-75
2022/05/28 03:38:57;;;;;;;5.03;3.60;;;15.00;99.90;;;;;;4993549;28;20368;-76
2022/05/28 03:41:24;;;;;;;4.63;3.47;;;15.00;99.90;;;;;;4994691;28;20033;-75
2022/05/28 03:43:49;;;;;;;4.15;3.75;;;15.10;99.90;;;;;;4992647;28;20022;-76
2022/05/28 03:46:20;;;;;;;4.20;3.17;;;15.10;99.90;;;;;;4998110;28;20089;-76
2022/05/28 03:48:46;;;;;;;4.35;3.83;;;15.10;99.90;;;;;;4994852;28;20020;-76
2022/05/28 03:51:16;;;;;;;5.13;3.22;;;15.10;99.90;;;;;;5001835;28;20034;-76
2022/05/28 03:53:41;;;;;;;3.90;2.92;;;15.10;99.90;;;;;;4997712;28;20117;-75
2022/05/28 03:56:09;;;;;;;3.57;2.87;;;15.00;99.90;;;;;;5002255;28;20573;-76
2022/05/28 03:58:35;;;;;;;3.03;2.72;;;15.00;99.90;;;;;;4998597;28;20128;-76
2022/05/28 04:01:04;;;;;;;4.23;2.77;;;14.90;99.90;;;;;;5002294;28;20948;-76
2022/05/28 04:03:30;;;;;;;3.75;2.45;;;14.90;99.90;;;;;;4997819;28;20034;-76
2022/05/28 04:06:03;;;;;;;2.72;2.47;;;14.80;99.90;;;;;;4999871;28;20061;-75
2022/05/28 04:08:29;;;;;;;3.65;2.42;;;14.70;99.90;;;;;;4994980;28;20517;-76
2022/05/28 04:10:55;;;;;;;3.60;2.72;;;14.70;99.90;;;;;;5001981;28;20049;-76
2022/05/28 04:13:24;;;;;;;7.20;2.37;;;14.60;99.90;;;;;;5002947;28;20022;-76
2022/05/28 04:15:50;;;;;;;3.92;2.78;;;14.50;99.90;;;;;;4998526;28;20796;-76
2022/05/28 04:18:16;;;;;;;5.32;2.80;;;14.50;99.90;;;;;;4999483;28;20022;-76
2022/05/28 04:20:43;;;;;;;5.65;2.38;;;14.50;99.90;;;;;;4998522;28;20044;-76
2022/05/28 04:23:14;;;;;;;;;;;14.50;99.90;;;;;;5003264;28;20030;-75
2022/05/28 04:25:45;;;;;;;2.50;2.05;;;14.50;99.90;;;;;;4998937;28;19996;-76
2022/05/28 04:28:15;;;;;;;2.97;2.38;;;14.50;99.90;;;;;;5003099;28;20022;-75
2022/05/28 04:30:52;;;;;;;4.05;2.30;;;14.40;99.90;;;;;;4997822;28;20030;-76
2022/05/28 04:33:18;;;;;;;3.88;2.20;;;14.40;99.90;;;;;;4997935;28;20088;-75
2022/05/28 04:35:46;;;;;;;;;;;14.50;99.90;;;;;;4996988;28;20026;-76
2022/05/28 04:38:16;;;;;;;2.47;1.92;;;14.50;99.90;;;;;;5000702;28;19906;-75
2022/05/28 04:40:42;;;;;;;3.38;2.85;;;14.50;99.90;;;;;;4994699;28;20037;-75
2022/05/28 04:43:09;;;;;;;4.07;2.30;;;14.50;99.90;;;;;;5000831;28;20018;-75
2022/05/28 04:45:35;;;;;;;2.25;2.05;;;14.50;99.90;;;;;;4996301;28;20032;-76
2022/05/28 04:48:00;;;;;;;4.67;2.43;;;14.50;99.90;;;;;;5000823;28;20029;-75
2022/05/28 04:50:27;;;;;;;2.42;2.22;;;14.40;99.90;;;;;;5001579;28;20023;-75
2022/05/28 04:53:08;;;;;;;2.53;2.33;;;14.40;99.90;;;;;;4996220;28;20113;-75
2022/05/28 04:55:38;;;;;;;4.18;2.15;;;14.40;99.90;;;;;;4995526;28;20061;-75
2022/05/28 04:58:12;;;;;;;3.15;2.10;;;14.50;99.90;;;;;;5000550;28;20033;-75
2022/05/28 05:00:40;;;;;;;2.90;2.00;;;14.50;99.90;;;;;;4996046;28;20038;-77
2022/05/28 05:03:07;;;;;;;3.65;1.88;;;14.50;99.90;;;;;;5000486;28;20034;-76
2022/05/28 05:05:35;;;;;;;6.05;2.13;;;14.70;99.90;;;;;;4996553;28;20164;-76
2022/05/28 05:08:01;;;;;;;2.85;1.98;;;14.70;99.90;;;;;;5000435;28;20037;-76
2022/05/28 05:10:39;;;;;;;4.90;2.13;;;14.80;99.90;;;;;;5001369;28;20026;-76
2022/05/28 05:13:06;;;;;;;2.33;1.83;;;14.80;99.90;;;;;;5001655;28;20034;-77
2022/05/28 05:15:32;;;;;;;3.80;2.00;;;14.90;99.90;;;;;;4997342;28;20030;-76
2022/05/28 05:17:58;;;;;;;2.88;1.83;;;15.00;99.90;;;;;;5000824;28;20353;-77
2022/05/28 05:20:30;;;;;;;3.30;2.10;;;15.10;99.90;;;;;;5001108;28;20049;-75
2022/05/28 05:22:56;;;;;;;3.25;2.20;;;15.10;99.90;;;;;;4997500;28;20037;-76
2022/05/28 05:25:26;;;;;;;3.38;1.88;;;15.20;99.90;;;;;;4999563;28;20497;-76
2022/05/28 05:27:54;;;;;;;2.92;2.30;;;15.30;99.90;;;;;;4995700;28;20026;-76
2022/05/28 05:30:23;;;;;;;2.58;1.98;;;15.30;99.90;;;;;;5000951;28;20021;-76
2022/05/28 05:32:51;;;;;;;2.53;2.00;;;15.40;99.90;;;;;;4997290;28;20049;-76
2022/05/28 05:35:17;;;;;;;3.20;2.00;;;15.50;99.90;;;;;;4999369;28;20029;-76
2022/05/28 05:37:53;;;;;;;3.58;2.00;;;15.60;99.90;;;;;;4995779;28;20037;-76
2022/05/28 05:40:21;;;;;;;5.03;2.13;;;15.70;99.90;;;;;;5000689;28;20029;-75
2022/05/28 05:42:49;;;;;;;2.28;2.03;;;15.70;99.90;;;;;;4996078;28;20044;-76
2022/05/28 05:45:15;;;;;;;4.00;2.00;;;15.70;99.90;;;;;;4998668;28;20018;-76
2022/05/28 05:47:49;;;;;;;3.42;2.10;;;15.70;99.90;;;;;;4995006;28;20427;-76
2022/05/28 05:50:16;;;;;;;4.53;2.10;;;15.80;99.90;;;;;;4999223;28;20108;-76
2022/05/28 05:52:41;;;;;;;2.58;1.90;;;15.90;99.90;;;;;;4995295;28;20559;-76
2022/05/28 05:55:07;;;;;;;6.33;2.33;;;16.00;99.90;;;;;;5000812;28;20038;-76
2022/05/28 05:57:34;;;;;;;2.65;1.98;;;16.00;99.90;;;;;;4998096;28;20022;-75
2022/05/28 06:00:01;;;;;;;3.63;2.30;;;16.10;99.90;;;;;;4999499;28;20036;-76
2022/05/28 06:02:26;;;;;;;2.92;1.92;;;16.20;99.90;;;;;;4998465;28;20030;-76
2022/05/28 06:04:53;;;;;;;5.50;1.87;;;16.40;99.90;;;;;;4995060;28;20497;-76
2022/05/28 06:07:20;;;;;;;4.65;2.25;;;16.50;99.90;;;;;;5000101;28;20299;-76
2022/05/28 06:09:46;;;;;;;3.53;2.10;;;16.50;99.90;;;;;;4996298;28;20100;-75
2022/05/28 06:12:27;;;;;;;4.93;2.47;;;16.40;99.90;;;;;;5000082;28;20018;-75
2022/05/28 06:14:57;;;;;;;2.33;2.10;;;16.30;99.90;;;;;;4993451;28;20733;-76
2022/05/28 06:17:24;;;;;;;2.33;2.13;;;16.50;99.90;;;;;;5000117;28;20045;-76
2022/05/28 06:19:50;;;;;;;3.17;2.03;;;17.10;99.90;;;;;;4996347;28;20037;-76
2022/05/28 06:22:17;;;;;;;2.47;2.28;;;17.60;99.90;;;;;;4999929;28;20053;-76
2022/05/28 06:24:44;;;;;;;2.95;2.20;;;18.20;99.90;;;;;;4996745;28;20503;-76
2022/05/28 06:27:11;;;;;;;2.22;1.70;;;18.30;99.90;;;;;;4996750;28;20690;-77
2022/05/28 06:29:39;;;;;;;3.53;1.60;;;19.90;99.90;;;;;;4999941;28;20025;-77
2022/05/28 06:32:05;;;;;;;2.80;1.70;;;20.50;98.50;;;;;;4993957;28;20026;-77
2022/05/28 06:34:33;;;;;;;2.08;1.70;;;20.20;98.10;;;;;;4999357;28;21475;-76
2022/05/28 06:37:00;;;;;;;2.65;1.70;;;20.40;97.50;;;;;;4995442;28;20030;-76
2022/05/28 06:39:26;;;;;;;3.35;1.92;;;20.50;96.60;;;;;;4999418;28;20025;-76
2022/05/28 06:41:52;;;;;;;2.25;1.83;;;21.90;95.20;;;;;;4993106;28;20576;-78
2022/05/28 06:44:19;;;;;;;2.60;1.75;;;22.30;93.40;;;;;;5003806;28;20025;-77
2022/05/28 06:46:51;;;;;;;3.47;2.10;;;21.80;92.80;;;;;;5000077;28;20032;-76
2022/05/28 06:49:17;;;;;;;2.03;1.83;;;21.00;93.80;;;;;;4998496;28;20022;-76
2022/05/28 06:51:48;;;;;;;2.83;1.75;;;20.20;94.30;;;;;;4999220;28;20017;-76
2022/05/28 06:54:18;;;;;;;3.75;1.98;;;19.40;95.80;;;;;;4993174;28;20037;-76
2022/05/28 06:56:45;;;;;;;2.22;1.80;;;18.80;97.50;;;;;;5000844;28;20022;-76
2022/05/28 06:59:16;;;;;;;2.35;1.77;;;18.50;98.00;;;;;;4993457;28;20506;-76
2022/05/28 07:01:41;;;;;;;2.53;2.00;;;18.30;98.20;;;;;;4999630;28;20029;-76
2022/05/28 07:04:10;;;;;;;2.75;1.67;;;18.10;98.60;;;;;;4996710;28;20044;-76
2022/05/28 07:06:37;;;;;;;3.17;1.88;;;17.90;98.30;;;;;;4997385;28;20479;-76
2022/05/28 07:09:05;;;;;;;3.72;2.17;;;17.70;99.40;;;;;;4994819;28;20033;-76
2022/05/28 07:11:31;;;;;;;4.38;2.35;;;17.50;99.20;;;;;;4998027;28;20030;-76
2022/05/28 07:13:59;;;;;;;2.55;1.67;;;17.30;99.50;;;;;;4994736;28;20018;-76
2022/05/28 07:16:26;;;;;;;6.20;2.45;;;17.20;99.90;;;;;;4999360;28;20030;-76
2022/05/28 07:18:51;;;;;;;3.35;2.20;;;17.00;99.90;;;;;;4995084;28;20022;-76
2022/05/28 07:21:17;;;;;;;3.13;1.97;;;17.00;99.90;;;;;;4995477;28;20026;-75
2022/05/28 07:23:43;;;;;;;3.28;1.75;;;17.20;99.90;;;;;;4999396;28;20718;-76
2022/05/28 07:26:18;;;;;;;2.70;1.83;;;18.00;98.40;;;;;;4994888;28;20049;-77
2022/05/28 07:28:47;;;;;;;3.47;2.03;;;18.30;95.80;;;;;;4998382;28;20028;-76
2022/05/28 07:31:16;;;;;;;5.93;1.85;;;18.20;95.10;;;;;;4992837;28;20038;-76
2022/05/28 07:33:45;;;;;;;4.60;2.05;;;18.00;94.30;;;;;;4998715;28;20097;-75
2022/05/28 07:36:14;;;;;;;3.78;1.90;;;17.70;93.30;;;;;;4990852;28;20088;-75
2022/05/28 07:38:40;;;;;;;4.72;2.38;;;17.50;93.30;;;;;;4998837;28;20018;-75
2022/05/28 07:41:14;;;;;;;3.00;1.80;;;17.30;93.40;;;;;;4994769;28;20029;-76
2022/05/28 07:43:40;;;;;;;4.10;1.85;;;17.30;93.70;;;;;;4997620;28;20026;-75
2022/05/28 07:46:12;;;;;;;;;;;17.30;93.50;;;;;;4994476;28;20017;-75
2022/05/28 07:48:45;;;;;;;5.03;1.88;;;17.20;94.00;;;;;;4997544;28;19909;-76
2022/05/28 07:51:13;;;;;;;5.95;2.05;;;17.60;93.30;;;;;;4994350;28;20026;-75
2022/05/28 07:53:45;;;;;;;3.47;1.70;;;18.10;92.60;;;;;;4999356;28;20033;-76
2022/05/28 07:56:19;;;;;;;5.50;1.80;;;18.70;92.40;;;;;;4991488;28;20022;-76
2022/05/28 07:58:54;;;;;;;5.50;2.47;;;19.90;89.30;;;;;;4994966;28;20022;-76
2022/05/28 08:01:36;;;;;;;5.38;1.55;;;20.10;85.80;;;;;;4998000;28;20168;-75
2022/05/28 08:04:02;;;;;;;3.20;2.15;;;20.10;86.60;;;;;;4993357;28;20842;-76
2022/05/28 08:06:44;;;;;;;6.63;2.40;;;19.70;87.00;;;;;;4996913;28;20029;-75
2022/05/28 08:09:11;;;;;;;3.60;1.90;;;19.40;87.90;;;;;;4993904;28;20132;-76
2022/05/28 08:11:40;;;;;;;4.20;2.05;;;19.10;89.60;;;;;;4997872;28;20026;-75
2022/05/28 08:14:08;;;;;;;2.97;1.73;;;18.90;89.50;;;;;;4994024;28;20647;-76
2022/05/28 08:16:40;;;;;;;3.58;1.60;;;18.70;88.70;;;;;;4998434;28;20022;-75
2022/05/28 08:19:07;;;;;;;5.38;2.00;;;18.60;90.10;;;;;;4994423;28;20026;-76
2022/05/28 08:24:24;;;;;;;3.63;1.67;;;18.20;90.40;;;;;;4995390;28;20432;-75
2022/05/28 08:26:53;;;;;;;4.05;1.75;;;18.20;90.30;;;;;;4995285;28;20077;-75
2022/05/28 08:29:22;;;;;;;4.95;1.83;;;18.40;89.00;;;;;;4997589;28;20037;-75
2022/05/28 08:31:49;;;;;;;3.90;1.60;;;18.60;87.20;;;;;;4997773;28;20025;-75
2022/05/28 08:34:18;;;;;;;5.43;1.80;;;19.50;85.40;;;;;;4994395;28;20022;-75
2022/05/28 08:36:45;;;;;;;2.80;1.38;;;20.00;81.40;;;;;;5000920;28;20038;-75
2022/05/28 08:39:20;;;;;;;6.68;2.38;;;20.20;80.30;;;;;;4997087;28;20095;-76
2022/05/28 08:41:57;;;;;;;4.97;1.60;;;20.00;81.20;;;;;;5001821;28;20018;-76
2022/05/28 08:44:44;;;;;;;4.60;1.75;;;19.90;80.50;;;;;;4999169;28;20018;-75
2022/05/28 08:47:25;;;;;;;5.05;2.00;;;19.80;80.00;;;;;;4996393;28;20026;-75
2022/05/28 08:49:54;;;;;;;4.57;1.70;;;19.80;79.20;;;;;;4998507;28;20407;-76
2022/05/28 08:52:52;;;;;;;7.28;1.70;;;20.10;79.10;;;;;;4998369;28;20073;-75
2022/05/28 08:55:24;;;;;;;5.85;1.90;;;21.20;77.40;;;;;;4996854;28;20025;-75
2022/05/28 08:58:13;;;;;;;9.25;2.38;;;22.00;74.30;;;;;;4997861;28;20129;-76
2022/05/28 09:01:02;;;;;;;4.05;1.70;;;21.80;73.20;;;;;;5000034;28;20030;-75
2022/05/28 09:03:43;;;;;;;4.63;1.60;;;21.50;73.10;;;;;;5000056;28;20041;-75
2022/05/28 09:06:31;;;;;;;7.90;1.67;;;21.70;74.20;;;;;;4992430;28;20022;-76
2022/05/28 09:09:01;;;;;;;5.85;1.80;;;21.80;73.00;;;;;;4994085;28;20333;-76
2022/05/28 09:11:42;;;;;;;5.18;1.63;;;21.70;74.30;;;;;;5001127;28;20095;-76
2022/05/28 09:14:32;;;;;;;5.97;2.05;;;21.10;75.30;;;;;;4995842;28;20459;-76
2022/05/28 09:17:21;;;;;;;5.57;1.80;;;20.90;75.20;;;;;;4995159;28;20014;-76
2022/05/28 09:19:48;;;;;;;5.80;2.25;;;20.80;76.00;;;;;;5000771;28;20069;-78
2022/05/28 09:22:27;;;;;;;2.08;1.55;;;21.00;75.70;;;;;;4998372;28;20017;-78
2022/05/28 09:24:53;;;;;;;5.50;1.70;;;22.00;74.90;;;;;;4999872;28;20026;-77
2022/05/28 09:27:47;;;;;;;4.47;1.63;;;22.60;70.90;;;;;;5002728;28;20038;-75
2022/05/28 09:30:51;;;;;;;5.20;1.67;;;23.10;70.20;;;;;;4997298;28;20066;-76
2022/05/28 09:33:38;;;;;;;3.33;1.63;;;24.40;67.60;;;;;;4996325;28;20018;-75
2022/05/28 09:36:20;;;;;;;;;;;26.40;64.10;;;;;;4994547;28;20077;-78
2022/05/28 09:39:11;;;;;;;6.25;1.65;;;27.40;58.20;;;;;;5000482;28;19936;-77
2022/05/28 09:41:56;;;;;;;5.05;2.03;;;26.90;56.40;;;;;;5001159;28;20829;-77
2022/05/28 09:44:31;;;;;;;8.20;2.03;;;26.20;57.90;;;;;;4996335;28;20022;-77
2022/05/28 09:47:14;;;;;;;3.17;1.48;;;25.10;59.10;;;;;;4993101;28;20026;-78
2022/05/28 09:49:57;;;;;;;4.00;1.70;;;24.30;61.20;;;;;;5000908;28;20430;-78
2022/05/28 09:52:34;;;;;;;4.72;1.88;;;23.50;62.10;;;;;;4997919;28;20022;-76
2022/05/28 09:55:18;;;;;;;3.05;1.65;;;22.50;64.30;;;;;;4994505;28;20044;-77
2022/05/28 09:58:01;;;;;;;3.30;1.27;;;21.90;67.10;;;;;;4998224;28;20029;-77
2022/05/28 10:00:28;;;;;;;3.55;1.55;;;21.40;68.10;;;;;;4998764;28;20029;-77
2022/05/28 10:05:57;;;;;;;10.32;1.90;;;21.30;68.90;;;;;;5000488;28;20107;-77
2022/05/28 10:08:31;;;;;;;4.32;1.73;;;21.40;69.30;;;;;;4994975;28;20022;-76
2022/05/28 10:11:03;;;;;;;3.20;1.55;;;21.40;68.80;;;;;;4994627;28;20025;-77
2022/05/28 10:13:31;;;;;;;6.60;2.20;;;21.20;69.00;;;;;;5000485;28;20025;-77
2022/05/28 10:16:01;;;;;;;3.30;1.50;;;20.90;70.40;;;;;;4995640;28;20467;-77
2022/05/28 10:18:51;;;;;;;4.90;1.90;;;20.50;71.20;;;;;;4999471;28;20038;-76
2022/05/28 10:21:28;;;;;;;3.90;1.88;;;20.10;72.20;;;;;;4993275;28;20068;-76
2022/05/28 10:23:59;;;;;;;3.63;1.52;;;20.00;73.10;;;;;;4999511;28;20352;-77
2022/05/28 10:26:31;;;;;;;4.43;1.58;;;20.10;73.90;;;;;;4999674;28;20033;-77
2022/05/28 10:29:04;;;;;;;6.65;2.00;;;20.40;73.00;;;;;;4995745;28;20036;-77
2022/05/28 10:31:35;;;;;;;4.72;1.65;;;20.40;72.60;;;;;;4999573;28;20026;-77
2022/05/28 10:34:05;;;;;;;3.40;1.67;;;20.70;72.50;;;;;;4994890;28;20014;-78
2022/05/28 10:36:35;;;;;;;2.83;1.77;;;21.30;72.20;;;;;;5000001;28;20049;-78
2022/05/28 10:39:11;;;;;;;4.35;1.48;;;22.20;69.90;;;;;;4994389;28;20049;-78
2022/05/28 10:41:40;;;;;;;4.15;1.65;;;23.30;66.80;;;;;;4998460;28;20033;-75
2022/05/28 10:44:24;;;;;;;4.60;1.60;;;23.80;63.70;;;;;;4994824;28;20038;-78
2022/05/28 10:47:31;;;;;;;4.97;1.48;;;23.80;63.20;;;;;;4994995;28;20029;-77
2022/05/28 10:50:20;;;;;;;2.25;1.50;;;23.70;64.00;;;;;;4994894;28;20022;-77
2022/05/28 10:53:19;;;;;;;3.00;1.63;;;24.10;60.50;;;;;;4995442;28;20071;-77
2022/05/28 10:56:06;;;;;;;1.88;1.33;;;24.00;61.80;;;;;;4999067;28;20018;-77
2022/05/28 10:58:50;;;;;;;3.80;1.50;;;23.60;61.70;;;;;;5000462;28;20030;-77
2022/05/28 11:01:36;;;;;;;1.67;1.40;;;22.90;62.20;;;;;;4995174;28;20104;-77
2022/05/28 11:04:14;;;;;;;3.70;1.70;;;22.30;63.40;;;;;;4993490;28;20029;-77
2022/05/28 11:07:23;;;;;;;2.42;1.52;;;21.80;64.50;;;;;;4998005;28;20068;-77
2022/05/28 11:10:06;;;;;;;3.00;1.38;;;21.20;66.40;;;;;;4994324;28;20034;-79
2022/05/28 11:12:48;;;;;;;3.53;1.40;;;20.70;67.10;;;;;;4997518;28;20026;-77
2022/05/28 11:15:28;;;;;;;3.42;1.40;;;20.50;67.80;;;;;;4994146;28;20352;-77
2022/05/28 11:18:01;;;;;;;3.67;1.52;;;20.20;69.50;;;;;;4998650;28;20018;-77
2022/05/28 11:20:45;;;;;;;2.92;1.63;;;19.90;75.10;;;;;;4999367;28;20026;-77
2022/05/28 11:23:25;;;;;;;4.20;1.75;;;19.40;78.10;;;;;;4990396;28;20021;-77
2022/05/28 11:26:37;;;;;;;4.53;1.50;;;19.00;78.60;;;;;;4996511;28;20022;-76
2022/05/28 11:29:35;;;;;;;2.65;1.60;;;18.70;79.00;;;;;;4992834;28;20642;-77
2022/05/28 11:32:16;;;;;;;3.83;1.30;;;18.40;81.00;;;;;;4992700;28;20029;-77
2022/05/28 11:34:57;;;;;;;7.35;1.80;;;18.20;80.10;;;;;;4997666;28;20812;-77
2022/05/28 11:37:34;;;;;;;4.32;1.60;;;18.10;79.50;;;;;;4996812;28;20029;-77
2022/05/28 11:40:07;;;;;;;3.25;1.85;;;18.00;78.50;;;;;;4993830;28;20026;-77
2022/05/28 11:42:49;;;;;;;1.73;1.63;;;18.00;79.50;;;;;;4999270;28;20030;-76
2022/05/28 11:45:52;;;;;;;3.20;1.77;;;18.00;78.30;;;;;;4994143;28;20025;-76
2022/05/28 11:51:42;;;;;;;2.45;1.45;;;17.70;80.20;;;;;;5001270;28;20037;-77
2022/05/28 11:54:22;;;;;;;3.90;1.67;;;17.70;80.40;;;;;;4998748;28;20064;-77
2022/05/28 11:56:56;;;;;;;3.67;1.75;;;17.70;84.60;;;;;;5003460;28;20025;-76
2022/05/28 11:59:26;;;;;;;4.57;1.50;;;17.60;85.70;;;;;;4999093;28;20040;-77
2022/05/28 12:02:10;;;;;;;1.65;1.30;;;17.60;85.20;;;;;;4997236;28;20538;-77
2022/05/28 12:04:43;;;;;;;3.22;2.20;;;17.60;88.10;;;;;;4998955;28;20042;-76
2022/05/28 12:07:38;;;;;;;4.20;1.73;;;17.70;89.00;;;;;;4994108;28;20022;-77
2022/05/28 12:10:10;;;;;;;3.70;1.85;;;17.50;88.10;;;;;;4995079;28;20128;-77
2022/05/28 12:12:58;;;;;;;6.60;2.00;;;17.20;90.70;;;;;;5004453;28;20018;-77
2022/05/28 12:15:29;;;;;;;2.42;1.73;;;17.10;90.50;;;;;;5000074;28;20022;-76
2022/05/28 12:18:21;;;;;;;2.35;1.63;;;17.00;91.10;;;;;;5003572;28;20018;-76
2022/05/28 12:20:58;;;;;;;3.17;1.85;;;16.80;91.10;;;;;;5002998;28;20026;-76
2022/05/28 12:23:35;;;;;;;2.13;1.42;;;16.70;91.00;;;;;;4999409;28;20930;-76
2022/05/28 12:26:03;;;;;;;;;;;16.60;91.30;;;;;;4997350;28;20044;-76
2022/05/28 12:28:47;;;;;;;;;;;16.60;91.60;;;;;;5002179;28;19910;-76
2022/05/28 12:31:26;;;;;;;2.42;1.42;;;16.60;91.50;;;;;;4997967;28;20005;-76
2022/05/28 12:33:58;;;;;;;4.45;1.70;;;16.80;91.30;;;;;;4994848;28;20025;-76
2022/05/28 12:36:38;;;;;;;3.47;1.85;;;16.80;91.10;;;;;;5001715;28;20320;-76
2022/05/28 12:39:30;;;;;;;5.20;2.28;;;16.80;90.90;;;;;;5001979;28;20021;-76
2022/05/28 12:42:03;;;;;;;2.55;1.40;;;16.80;90.40;;;;;;5000609;28;20391;-76
2022/05/28 12:44:29;;;;;;;2.42;1.30;;;16.80;90.00;;;;;;4999389;28;20018;-78
2022/05/28 12:46:57;;;;;;;5.00;1.65;;;16.80;89.80;;;;;;5001502;28;20428;-76
2022/05/28 12:49:33;;;;;;;3.20;1.25;;;17.00;90.90;;;;;;4999384;28;20034;-76
2022/05/28 12:52:29;;;;;;;2.33;1.40;;;17.00;89.00;;;;;;5001824;28;20032;-77
2022/05/28 12:55:15;;;;;;;3.38;1.30;;;17.00;88.10;;;;;;4997877;28;20101;-76
2022/05/28 12:58:01;;;;;;;1.17;0.88;;;17.00;87.10;;;;;;4993546;28;20030;-76
2022/05/28 13:00:31;;;;;;;4.22;1.63;;;17.10;86.70;;;;;;4999941;28;20025;-76
2022/05/28 13:02:58;;;;;;;5.80;1.40;;;17.40;86.80;;;;;;5001048;28;20110;-76
2022/05/28 13:05:38;;;;;;;2.55;1.50;;;17.50;85.60;;;;;;5000699;28;20025;-76
2022/05/28 13:08:17;;;;;;;3.53;1.20;;;17.60;85.00;;;;;;4998064;28;20034;-76
2022/05/28 13:11:07;;;;;;;4.50;1.70;;;17.70;85.80;;;;;;4987675;28;20590;-77
2022/05/28 13:13:55;;;;;;;2.80;1.67;;;17.60;86.20;;;;;;4991601;28;20034;-77
2022/05/28 13:16:41;;;;;;;3.40;1.95;;;17.60;86.70;;;;;;4997221;28;20539;-77
2022/05/28 13:19:21;;;;;;;2.80;1.90;;;17.60;87.40;;;;;;4998792;28;20105;-76
2022/05/28 13:22:08;;;;;;;4.13;1.60;;;17.60;87.70;;;;;;4995935;28;20029;-76
2022/05/28 13:24:55;;;;;;;4.60;1.50;;;17.70;86.70;;;;;;4995905;28;20014;-76
2022/05/28 13:27:33;;;;;;;2.88;1.45;;;17.70;85.90;;;;;;4997301;28;20768;-76
2022/05/28 13:30:17;;;;;;;3.42;1.48;;;17.60;85.40;;;;;;5000660;28;20034;-77
2022/05/28 13:32:49;;;;;;;1.90;1.00;;;17.80;85.00;;;;;;4995730;28;20491;-76